sensor_id;sensor_type;location;lat;lon;timestamp;P1;durP1;ratioP1;P2;durP2;ratioP2
2173;SDS011;1093;51.424;11.764;2023-08-06T00:00:54;4.23;;;3.83;;
2173;SDS011;1093;51.424;11.764;2023-08-06T00:03:21;6.27;;;3.40;;
2173;SDS011;1093;51.424;11.764;2023-08-06T00:05:48;2.90;;;2.60;;
2173;SDS011;1093;51.424;11.764;2023-08-06T00:08:15;3.00;;;2.43;;
2173;SDS011;1093;51.424;11.764;2023-08-06T00:10:43;3.90;;;2.63;;
2173;SDS011;1093;51.424;11.764;2023-08-06T00:13:09;3.27;;;2.97;;
2173;SDS011;1093;51.424;11.764;2023-08-06T00:15:36;2.80;;;2.27;;
2173;SDS011;1093;51.424;11.764;2023-08-06T00:18:03;2.00;;;1.80;;
2173;SDS011;1093;51.424;11.764;2023-08-06T00:20:30;2.40;;;1.97;;
2173;SDS011;1093;51.424;11.764;2023-08-06T00:22:57;2.50;;;2.30;;
2173;SDS011;1093;51.424;11.764;2023-08-06T00:25:24;2.40;;;2.20;;
2173;SDS011;1093;51.424;11.764;2023-08-06T00:27:52;2.57;;;1.83;;
2173;SDS011;1093;51.424;11.764;2023-08-06T00:30:19;2.67;;;2.47;;
2173;SDS011;1093;51.424;11.764;2023-08-06T00:32:46;2.00;;;1.80;;
2173;SDS011;1093;51.424;11.764;2023-08-06T00:35:13;4.87;;;2.30;;
2173;SDS011;1093;51.424;11.764;2023-08-06T00:37:39;3.40;;;2.20;;
2173;SDS011;1093;51.424;11.764;2023-08-06T00:40:07;3.23;;;2.10;;
2173;SDS011;1093;51.424;11.764;2023-08-06T00:42:34;2.60;;;1.83;;
2173;SDS011;1093;51.424;11.764;2023-08-06T00:45:02;2.43;;;1.77;;
2173;SDS011;1093;51.424;11.764;2023-08-06T00:47:29;2.17;;;1.90;;
2173;SDS011;1093;51.424;11.764;2023-08-06T00:49:56;3.70;;;1.63;;
2173;SDS011;1093;51.424;11.764;2023-08-06T00:52:23;2.10;;;1.90;;
2173;SDS011;1093;51.424;11.764;2023-08-06T00:54:50;2.47;;;1.60;;
2173;SDS011;1093;51.424;11.764;2023-08-06T00:57:17;1.90;;;1.80;;
2173;SDS011;1093;51.424;11.764;2023-08-06T00:59:46;1.83;;;1.73;;
2173;SDS011;1093;51.424;11.764;2023-08-06T01:02:14;3.07;;;2.13;;
2173;SDS011;1093;51.424;11.764;2023-08-06T01:04:41;2.23;;;2.00;;
2173;SDS011;1093;51.424;11.764;2023-08-06T01:07:10;2.43;;;2.23;;
2173;SDS011;1093;51.424;11.764;2023-08-06T01:09:50;2.10;;;1.93;;
2173;SDS011;1093;51.424;11.764;2023-08-06T01:12:24;1.87;;;1.77;;
2173;SDS011;1093;51.424;11.764;2023-08-06T01:15:01;1.70;;;1.60;;
2173;SDS011;1093;51.424;11.764;2023-08-06T01:17:35;2.20;;;2.00;;
2173;SDS011;1093;51.424;11.764;2023-08-06T01:20:03;2.50;;;2.30;;
2173;SDS011;1093;51.424;11.764;2023-08-06T01:22:32;4.43;;;2.20;;
2173;SDS011;1093;51.424;11.764;2023-08-06T01:24:58;1.90;;;1.77;;
2173;SDS011;1093;51.424;11.764;2023-08-06T01:27:26;2.50;;;2.10;;
2173;SDS011;1093;51.424;11.764;2023-08-06T01:30:02;2.33;;;1.93;;
2173;SDS011;1093;51.424;11.764;2023-08-06T01:32:34;1.90;;;1.80;;
2173;SDS011;1093;51.424;11.764;2023-08-06T01:35:02;2.03;;;1.90;;
2173;SDS011;1093;51.424;11.764;2023-08-06T01:37:29;1.90;;;1.80;;
2173;SDS011;1093;51.424;11.764;2023-08-06T01:39:58;2.33;;;2.13;;
2173;SDS011;1093;51.424;11.764;2023-08-06T01:42:25;2.50;;;2.20;;
2173;SDS011;1093;51.424;11.764;2023-08-06T01:44:51;2.83;;;2.00;;
2173;SDS011;1093;51.424;11.764;2023-08-06T01:47:18;2.60;;;1.80;;
2173;SDS011;1093;51.424;11.764;2023-08-06T01:49:45;2.83;;;1.90;;
2173;SDS011;1093;51.424;11.764;2023-08-06T01:52:12;3.87;;;1.80;;
2173;SDS011;1093;51.424;11.764;2023-08-06T01:54:41;1.73;;;1.63;;
2173;SDS011;1093;51.424;11.764;2023-08-06T01:57:08;2.00;;;1.90;;
2173;SDS011;1093;51.424;11.764;2023-08-06T01:59:34;2.10;;;1.70;;
2173;SDS011;1093;51.424;11.764;2023-08-06T02:02:01;3.67;;;2.63;;
2173;SDS011;1093;51.424;11.764;2023-08-06T02:04:29;1.90;;;1.80;;
2173;SDS011;1093;51.424;11.764;2023-08-06T02:06:59;2.20;;;2.00;;
2173;SDS011;1093;51.424;11.764;2023-08-06T02:09:26;3.10;;;2.67;;
2173;SDS011;1093;51.424;11.764;2023-08-06T02:11:54;2.20;;;2.00;;
2173;SDS011;1093;51.424;11.764;2023-08-06T02:14:21;1.97;;;1.80;;
2173;SDS011;1093;51.424;11.764;2023-08-06T02:16:48;5.10;;;2.70;;
2173;SDS011;1093;51.424;11.764;2023-08-06T02:19:15;2.43;;;2.23;;
2173;SDS011;1093;51.424;11.764;2023-08-06T02:21:42;3.37;;;2.20;;
2173;SDS011;1093;51.424;11.764;2023-08-06T02:24:09;2.50;;;2.30;;
2173;SDS011;1093;51.424;11.764;2023-08-06T02:26:36;4.30;;;3.13;;
2173;SDS011;1093;51.424;11.764;2023-08-06T02:29:05;3.10;;;2.80;;
2173;SDS011;1093;51.424;11.764;2023-08-06T02:31:32;3.20;;;2.63;;
2173;SDS011;1093;51.424;11.764;2023-08-06T02:33:59;2.80;;;2.57;;
2173;SDS011;1093;51.424;11.764;2023-08-06T02:36:25;2.83;;;2.40;;
2173;SDS011;1093;51.424;11.764;2023-08-06T02:38:54;2.93;;;2.37;;
2173;SDS011;1093;51.424;11.764;2023-08-06T02:41:21;2.83;;;2.57;;
2173;SDS011;1093;51.424;11.764;2023-08-06T02:43:48;2.30;;;2.10;;
2173;SDS011;1093;51.424;11.764;2023-08-06T02:46:16;2.30;;;2.10;;
2173;SDS011;1093;51.424;11.764;2023-08-06T02:48:42;3.00;;;2.70;;
2173;SDS011;1093;51.424;11.764;2023-08-06T02:51:09;4.60;;;3.07;;
2173;SDS011;1093;51.424;11.764;2023-08-06T02:53:36;3.23;;;2.80;;
2173;SDS011;1093;51.424;11.764;2023-08-06T02:56:04;2.53;;;2.30;;
2173;SDS011;1093;51.424;11.764;2023-08-06T02:58:34;6.13;;;2.87;;
2173;SDS011;1093;51.424;11.764;2023-08-06T03:01:02;2.87;;;2.67;;
2173;SDS011;1093;51.424;11.764;2023-08-06T03:03:32;4.70;;;2.63;;
2173;SDS011;1093;51.424;11.764;2023-08-06T03:06:00;2.80;;;2.43;;
2173;SDS011;1093;51.424;11.764;2023-08-06T03:08:29;3.40;;;2.83;;
2173;SDS011;1093;51.424;11.764;2023-08-06T03:10:58;8.57;;;3.57;;
2173;SDS011;1093;51.424;11.764;2023-08-06T03:13:37;4.27;;;3.27;;
2173;SDS011;1093;51.424;11.764;2023-08-06T03:16:10;10.23;;;3.40;;
2173;SDS011;1093;51.424;11.764;2023-08-06T03:21:32;3.53;;;3.23;;
2173;SDS011;1093;51.424;11.764;2023-08-06T03:24:34;7.63;;;2.60;;
2173;SDS011;1093;51.424;11.764;2023-08-06T03:27:51;3.10;;;2.80;;
2173;SDS011;1093;51.424;11.764;2023-08-06T03:31:24;3.40;;;3.10;;
2173;SDS011;1093;51.424;11.764;2023-08-06T03:34:35;3.30;;;3.00;;
2173;SDS011;1093;51.424;11.764;2023-08-06T04:39:28;10.23;;;5.17;;
2173;SDS011;1093;51.424;11.764;2023-08-06T04:41:55;6.07;;;5.53;;
2173;SDS011;1093;51.424;11.764;2023-08-06T04:44:22;6.07;;;5.50;;
2173;SDS011;1093;51.424;11.764;2023-08-06T04:46:50;5.57;;;5.00;;
2173;SDS011;1093;51.424;11.764;2023-08-06T04:49:17;5.93;;;5.33;;
2173;SDS011;1093;51.424;11.764;2023-08-06T04:51:44;6.67;;;5.97;;
2173;SDS011;1093;51.424;11.764;2023-08-06T04:54:10;6.60;;;5.40;;
2173;SDS011;1093;51.424;11.764;2023-08-06T04:56:39;6.33;;;5.07;;
2173;SDS011;1093;51.424;11.764;2023-08-06T04:59:05;5.50;;;4.80;;
2173;SDS011;1093;51.424;11.764;2023-08-06T05:01:32;6.40;;;4.87;;
2173;SDS011;1093;51.424;11.764;2023-08-06T05:03:59;6.37;;;5.80;;
2173;SDS011;1093;51.424;11.764;2023-08-06T05:06:26;5.67;;;5.00;;
2173;SDS011;1093;51.424;11.764;2023-08-06T05:08:53;6.47;;;5.87;;
2173;SDS011;1093;51.424;11.764;2023-08-06T05:11:20;8.63;;;5.80;;
2173;SDS011;1093;51.424;11.764;2023-08-06T05:13:48;15.43;;;5.53;;
2173;SDS011;1093;51.424;11.764;2023-08-06T05:16:15;6.73;;;5.40;;
2173;SDS011;1093;51.424;11.764;2023-08-06T05:18:41;6.17;;;5.57;;
2173;SDS011;1093;51.424;11.764;2023-08-06T05:21:08;7.73;;;5.60;;
2173;SDS011;1093;51.424;11.764;2023-08-06T05:23:35;5.63;;;5.13;;
2173;SDS011;1093;51.424;11.764;2023-08-06T05:26:02;7.93;;;5.57;;
2173;SDS011;1093;51.424;11.764;2023-08-06T05:28:29;6.67;;;5.57;;
2173;SDS011;1093;51.424;11.764;2023-08-06T05:30:57;5.63;;;5.03;;
2173;SDS011;1093;51.424;11.764;2023-08-06T05:33:24;6.97;;;6.30;;
2173;SDS011;1093;51.424;11.764;2023-08-06T05:35:50;5.53;;;4.90;;
2173;SDS011;1093;51.424;11.764;2023-08-06T05:38:17;5.33;;;4.77;;
2173;SDS011;1093;51.424;11.764;2023-08-06T05:40:44;9.87;;;5.23;;
2173;SDS011;1093;51.424;11.764;2023-08-06T05:43:11;5.93;;;5.33;;
2173;SDS011;1093;51.424;11.764;2023-08-06T05:45:38;5.43;;;4.93;;
2173;SDS011;1093;51.424;11.764;2023-08-06T05:48:06;6.77;;;5.73;;
2173;SDS011;1093;51.424;11.764;2023-08-06T05:50:33;6.10;;;5.50;;
2173;SDS011;1093;51.424;11.764;2023-08-06T05:53:00;6.90;;;5.40;;
2173;SDS011;1093;51.424;11.764;2023-08-06T05:55:26;6.27;;;4.90;;
2173;SDS011;1093;51.424;11.764;2023-08-06T05:57:53;5.97;;;5.37;;
2173;SDS011;1093;51.424;11.764;2023-08-06T06:00:21;12.73;;;5.33;;
2173;SDS011;1093;51.424;11.764;2023-08-06T06:02:48;5.90;;;4.40;;
2173;SDS011;1093;51.424;11.764;2023-08-06T06:05:17;5.20;;;4.67;;
2173;SDS011;1093;51.424;11.764;2023-08-06T06:07:43;6.60;;;4.43;;
2173;SDS011;1093;51.424;11.764;2023-08-06T06:10:10;8.40;;;4.70;;
2173;SDS011;1093;51.424;11.764;2023-08-06T06:12:38;4.80;;;3.97;;
2173;SDS011;1093;51.424;11.764;2023-08-06T06:15:05;10.63;;;4.73;;
2173;SDS011;1093;51.424;11.764;2023-08-06T06:17:32;8.67;;;5.07;;
2173;SDS011;1093;51.424;11.764;2023-08-06T06:19:59;5.20;;;4.70;;
2173;SDS011;1093;51.424;11.764;2023-08-06T06:22:30;5.40;;;4.20;;
2173;SDS011;1093;51.424;11.764;2023-08-06T06:24:57;8.13;;;4.97;;
2173;SDS011;1093;51.424;11.764;2023-08-06T06:27:23;7.87;;;5.40;;
2173;SDS011;1093;51.424;11.764;2023-08-06T06:29:50;6.27;;;4.90;;
2173;SDS011;1093;51.424;11.764;2023-08-06T06:32:19;8.73;;;4.63;;
2173;SDS011;1093;51.424;11.764;2023-08-06T06:34:46;10.83;;;5.33;;
2173;SDS011;1093;51.424;11.764;2023-08-06T06:37:13;4.93;;;4.43;;
2173;SDS011;1093;51.424;11.764;2023-08-06T06:39:41;4.33;;;3.93;;
2173;SDS011;1093;51.424;11.764;2023-08-06T06:42:09;5.93;;;4.33;;
2173;SDS011;1093;51.424;11.764;2023-08-06T06:44:36;11.00;;;4.60;;
2173;SDS011;1093;51.424;11.764;2023-08-06T06:47:03;4.13;;;3.73;;
2173;SDS011;1093;51.424;11.764;2023-08-06T06:49:30;6.10;;;4.40;;
2173;SDS011;1093;51.424;11.764;2023-08-06T06:51:57;5.33;;;4.50;;
2173;SDS011;1093;51.424;11.764;2023-08-06T06:54:23;5.17;;;3.97;;
2173;SDS011;1093;51.424;11.764;2023-08-06T06:56:51;6.60;;;4.30;;
2173;SDS011;1093;51.424;11.764;2023-08-06T06:59:18;4.43;;;4.00;;
2173;SDS011;1093;51.424;11.764;2023-08-06T07:01:45;4.20;;;3.80;;
2173;SDS011;1093;51.424;11.764;2023-08-06T07:04:12;4.37;;;3.83;;
2173;SDS011;1093;51.424;11.764;2023-08-06T07:06:39;4.93;;;4.40;;
2173;SDS011;1093;51.424;11.764;2023-08-06T07:09:05;6.77;;;4.70;;
2173;SDS011;1093;51.424;11.764;2023-08-06T07:11:32;6.17;;;3.50;;
2173;SDS011;1093;51.424;11.764;2023-08-06T07:14:01;7.30;;;4.73;;
2173;SDS011;1093;51.424;11.764;2023-08-06T07:16:27;5.20;;;4.00;;
2173;SDS011;1093;51.424;11.764;2023-08-06T07:18:54;5.60;;;4.43;;
2173;SDS011;1093;51.424;11.764;2023-08-06T07:21:21;8.53;;;4.17;;
2173;SDS011;1093;51.424;11.764;2023-08-06T07:23:48;4.43;;;3.70;;
2173;SDS011;1093;51.424;11.764;2023-08-06T07:26:15;5.57;;;3.60;;
2173;SDS011;1093;51.424;11.764;2023-08-06T07:28:42;4.90;;;4.03;;
2173;SDS011;1093;51.424;11.764;2023-08-06T07:31:10;4.60;;;4.13;;
2173;SDS011;1093;51.424;11.764;2023-08-06T07:33:37;5.37;;;4.97;;
2173;SDS011;1093;51.424;11.764;2023-08-06T07:36:07;9.20;;;4.50;;
2173;SDS011;1093;51.424;11.764;2023-08-06T07:38:35;5.90;;;4.30;;
2173;SDS011;1093;51.424;11.764;2023-08-06T07:41:02;5.53;;;4.10;;
2173;SDS011;1093;51.424;11.764;2023-08-06T07:43:29;4.77;;;4.27;;
2173;SDS011;1093;51.424;11.764;2023-08-06T07:45:57;4.03;;;3.63;;
2173;SDS011;1093;51.424;11.764;2023-08-06T07:48:26;6.03;;;3.83;;
2173;SDS011;1093;51.424;11.764;2023-08-06T07:50:53;3.50;;;3.20;;
2173;SDS011;1093;51.424;11.764;2023-08-06T07:53:20;4.17;;;3.77;;
2173;SDS011;1093;51.424;11.764;2023-08-06T07:55:49;4.90;;;4.40;;
2173;SDS011;1093;51.424;11.764;2023-08-06T07:58:17;4.80;;;3.87;;
2173;SDS011;1093;51.424;11.764;2023-08-06T08:00:44;4.03;;;3.67;;
2173;SDS011;1093;51.424;11.764;2023-08-06T08:03:11;4.43;;;4.03;;
2173;SDS011;1093;51.424;11.764;2023-08-06T08:05:40;4.20;;;3.80;;
2173;SDS011;1093;51.424;11.764;2023-08-06T08:08:07;4.27;;;3.87;;
2173;SDS011;1093;51.424;11.764;2023-08-06T08:10:34;3.67;;;3.37;;
2173;SDS011;1093;51.424;11.764;2023-08-06T08:13:01;3.80;;;3.40;;
2173;SDS011;1093;51.424;11.764;2023-08-06T08:15:29;4.40;;;3.53;;
2173;SDS011;1093;51.424;11.764;2023-08-06T08:17:56;3.30;;;2.93;;
2173;SDS011;1093;51.424;11.764;2023-08-06T08:20:24;3.50;;;3.20;;
2173;SDS011;1093;51.424;11.764;2023-08-06T08:22:54;3.60;;;3.27;;
2173;SDS011;1093;51.424;11.764;2023-08-06T08:25:21;6.30;;;3.30;;
2173;SDS011;1093;51.424;11.764;2023-08-06T08:27:48;7.30;;;3.63;;
2173;SDS011;1093;51.424;11.764;2023-08-06T08:30:15;3.40;;;3.10;;
2173;SDS011;1093;51.424;11.764;2023-08-06T08:32:43;2.90;;;2.70;;
2173;SDS011;1093;51.424;11.764;2023-08-06T08:35:09;3.43;;;3.13;;
2173;SDS011;1093;51.424;11.764;2023-08-06T08:37:38;5.83;;;2.57;;
2173;SDS011;1093;51.424;11.764;2023-08-06T08:40:08;3.73;;;2.70;;
2173;SDS011;1093;51.424;11.764;2023-08-06T08:42:36;5.17;;;3.23;;
2173;SDS011;1093;51.424;11.764;2023-08-06T08:45:04;3.50;;;3.20;;
2173;SDS011;1093;51.424;11.764;2023-08-06T08:47:34;3.47;;;3.07;;
2173;SDS011;1093;51.424;11.764;2023-08-06T08:50:01;4.60;;;3.67;;
2173;SDS011;1093;51.424;11.764;2023-08-06T08:52:30;4.10;;;2.80;;
2173;SDS011;1093;51.424;11.764;2023-08-06T08:54:59;3.10;;;2.83;;
2173;SDS011;1093;51.424;11.764;2023-08-06T08:57:29;3.90;;;3.03;;
2173;SDS011;1093;51.424;11.764;2023-08-06T08:59:56;3.40;;;2.80;;
2173;SDS011;1093;51.424;11.764;2023-08-06T09:02:23;4.17;;;3.30;;
2173;SDS011;1093;51.424;11.764;2023-08-06T09:04:54;3.20;;;2.90;;
2173;SDS011;1093;51.424;11.764;2023-08-06T09:07:24;3.97;;;3.10;;
2173;SDS011;1093;51.424;11.764;2023-08-06T09:09:52;2.70;;;2.50;;
2173;SDS011;1093;51.424;11.764;2023-08-06T09:12:22;3.10;;;2.90;;
2173;SDS011;1093;51.424;11.764;2023-08-06T09:14:50;4.83;;;3.60;;
2173;SDS011;1093;51.424;11.764;2023-08-06T09:17:17;6.90;;;2.80;;
2173;SDS011;1093;51.424;11.764;2023-08-06T09:19:46;3.70;;;3.40;;
2173;SDS011;1093;51.424;11.764;2023-08-06T09:22:14;3.13;;;2.83;;
2173;SDS011;1093;51.424;11.764;2023-08-06T09:24:41;2.70;;;2.50;;
2173;SDS011;1093;51.424;11.764;2023-08-06T09:27:11;7.50;;;4.40;;
2173;SDS011;1093;51.424;11.764;2023-08-06T09:29:42;3.63;;;3.20;;
2173;SDS011;1093;51.424;11.764;2023-08-06T09:32:11;3.43;;;3.13;;
2173;SDS011;1093;51.424;11.764;2023-08-06T09:34:39;2.80;;;2.60;;
2173;SDS011;1093;51.424;11.764;2023-08-06T09:37:07;3.20;;;2.80;;
2173;SDS011;1093;51.424;11.764;2023-08-06T09:39:35;4.97;;;3.00;;
2173;SDS011;1093;51.424;11.764;2023-08-06T09:42:04;3.03;;;2.73;;
2173;SDS011;1093;51.424;11.764;2023-08-06T09:44:31;3.57;;;2.63;;
2173;SDS011;1093;51.424;11.764;2023-08-06T09:46:59;4.20;;;2.80;;
2173;SDS011;1093;51.424;11.764;2023-08-06T09:49:40;4.47;;;2.70;;
2173;SDS011;1093;51.424;11.764;2023-08-06T09:52:10;6.27;;;3.27;;
2173;SDS011;1093;51.424;11.764;2023-08-06T09:54:41;2.77;;;2.50;;
2173;SDS011;1093;51.424;11.764;2023-08-06T09:57:11;2.60;;;2.40;;
2173;SDS011;1093;51.424;11.764;2023-08-06T09:59:38;3.37;;;2.93;;
2173;SDS011;1093;51.424;11.764;2023-08-06T10:02:10;5.20;;;3.00;;
2173;SDS011;1093;51.424;11.764;2023-08-06T10:04:41;3.80;;;3.00;;
2173;SDS011;1093;51.424;11.764;2023-08-06T10:07:11;2.83;;;2.50;;
2173;SDS011;1093;51.424;11.764;2023-08-06T10:09:38;3.63;;;3.33;;
2173;SDS011;1093;51.424;11.764;2023-08-06T10:12:05;2.57;;;2.37;;
2173;SDS011;1093;51.424;11.764;2023-08-06T10:14:33;3.00;;;2.70;;
2173;SDS011;1093;51.424;11.764;2023-08-06T10:17:03;3.63;;;2.60;;
2173;SDS011;1093;51.424;11.764;2023-08-06T10:19:30;4.73;;;2.20;;
2173;SDS011;1093;51.424;11.764;2023-08-06T10:22:12;6.50;;;2.47;;
2173;SDS011;1093;51.424;11.764;2023-08-06T10:24:46;3.33;;;2.83;;
2173;SDS011;1093;51.424;11.764;2023-08-06T10:27:14;3.10;;;2.40;;
2173;SDS011;1093;51.424;11.764;2023-08-06T10:29:46;5.20;;;2.67;;
2173;SDS011;1093;51.424;11.764;2023-08-06T10:32:13;2.20;;;2.00;;
2173;SDS011;1093;51.424;11.764;2023-08-06T10:37:35;2.60;;;2.40;;
2173;SDS011;1093;51.424;11.764;2023-08-06T10:40:03;2.27;;;2.10;;
2173;SDS011;1093;51.424;11.764;2023-08-06T10:42:32;2.67;;;2.47;;
2173;SDS011;1093;51.424;11.764;2023-08-06T10:45:12;2.30;;;2.10;;
2173;SDS011;1093;51.424;11.764;2023-08-06T10:47:42;4.33;;;2.70;;
2173;SDS011;1093;51.424;11.764;2023-08-06T10:50:11;2.70;;;2.40;;
2173;SDS011;1093;51.424;11.764;2023-08-06T10:52:40;2.63;;;2.43;;
2173;SDS011;1093;51.424;11.764;2023-08-06T10:55:07;3.17;;;2.50;;
2173;SDS011;1093;51.424;11.764;2023-08-06T10:57:35;1.97;;;1.87;;
2173;SDS011;1093;51.424;11.764;2023-08-06T11:00:03;2.70;;;1.70;;
2173;SDS011;1093;51.424;11.764;2023-08-06T11:02:32;3.80;;;2.90;;
2173;SDS011;1093;51.424;11.764;2023-08-06T11:05:04;3.30;;;2.27;;
2173;SDS011;1093;51.424;11.764;2023-08-06T11:07:32;2.60;;;2.40;;
2173;SDS011;1093;51.424;11.764;2023-08-06T11:10:04;3.70;;;2.60;;
2173;SDS011;1093;51.424;11.764;2023-08-06T11:12:33;2.40;;;2.20;;
2173;SDS011;1093;51.424;11.764;2023-08-06T11:15:00;2.77;;;2.40;;
2173;SDS011;1093;51.424;11.764;2023-08-06T11:17:28;3.13;;;2.33;;
2173;SDS011;1093;51.424;11.764;2023-08-06T11:19:56;2.80;;;2.57;;
2173;SDS011;1093;51.424;11.764;2023-08-06T11:22:26;2.40;;;2.20;;
2173;SDS011;1093;51.424;11.764;2023-08-06T11:24:53;4.33;;;2.50;;
2173;SDS011;1093;51.424;11.764;2023-08-06T11:27:21;3.20;;;1.70;;
2173;SDS011;1093;51.424;11.764;2023-08-06T11:29:48;2.37;;;2.17;;
2173;SDS011;1093;51.424;11.764;2023-08-06T11:32:15;1.77;;;1.67;;
2173;SDS011;1093;51.424;11.764;2023-08-06T11:34:42;2.20;;;2.00;;
2173;SDS011;1093;51.424;11.764;2023-08-06T11:37:10;3.63;;;2.27;;
2173;SDS011;1093;51.424;11.764;2023-08-06T11:39:37;2.30;;;2.10;;
2173;SDS011;1093;51.424;11.764;2023-08-06T11:42:05;2.90;;;2.60;;
2173;SDS011;1093;51.424;11.764;2023-08-06T11:44:34;2.60;;;2.40;;
2173;SDS011;1093;51.424;11.764;2023-08-06T11:47:02;2.10;;;1.70;;
2173;SDS011;1093;51.424;11.764;2023-08-06T11:49:37;1.90;;;1.70;;
2173;SDS011;1093;51.424;11.764;2023-08-06T11:52:13;1.83;;;1.70;;
2173;SDS011;1093;51.424;11.764;2023-08-06T11:54:43;4.50;;;2.50;;
2173;SDS011;1093;51.424;11.764;2023-08-06T11:57:10;1.93;;;1.83;;
2173;SDS011;1093;51.424;11.764;2023-08-06T11:59:39;2.90;;;2.70;;
2173;SDS011;1093;51.424;11.764;2023-08-06T12:02:07;2.60;;;2.20;;
2173;SDS011;1093;51.424;11.764;2023-08-06T12:07:26;2.83;;;2.37;;
2173;SDS011;1093;51.424;11.764;2023-08-06T12:09:54;2.90;;;2.43;;
2173;SDS011;1093;51.424;11.764;2023-08-06T12:12:21;2.97;;;2.30;;
2173;SDS011;1093;51.424;11.764;2023-08-06T12:14:49;2.03;;;1.83;;
2173;SDS011;1093;51.424;11.764;2023-08-06T12:17:16;2.50;;;2.30;;
2173;SDS011;1093;51.424;11.764;2023-08-06T12:19:44;3.37;;;2.30;;
2173;SDS011;1093;51.424;11.764;2023-08-06T12:22:11;2.20;;;1.77;;
2173;SDS011;1093;51.424;11.764;2023-08-06T12:24:39;2.23;;;1.80;;
2173;SDS011;1093;51.424;11.764;2023-08-06T12:27:06;2.50;;;2.30;;
2173;SDS011;1093;51.424;11.764;2023-08-06T12:29:33;1.90;;;1.73;;
2173;SDS011;1093;51.424;11.764;2023-08-06T12:32:01;2.60;;;2.33;;
2173;SDS011;1093;51.424;11.764;2023-08-06T12:34:28;1.80;;;1.70;;
2173;SDS011;1093;51.424;11.764;2023-08-06T12:36:55;2.50;;;2.30;;
2173;SDS011;1093;51.424;11.764;2023-08-06T12:39:21;3.17;;;2.80;;
2173;SDS011;1093;51.424;11.764;2023-08-06T12:41:48;3.20;;;2.17;;
2173;SDS011;1093;51.424;11.764;2023-08-06T12:44:15;2.70;;;2.50;;
2173;SDS011;1093;51.424;11.764;2023-08-06T12:46:42;1.93;;;1.83;;
2173;SDS011;1093;51.424;11.764;2023-08-06T12:49:10;4.30;;;1.83;;
2173;SDS011;1093;51.424;11.764;2023-08-06T12:51:37;2.50;;;2.30;;
2173;SDS011;1093;51.424;11.764;2023-08-06T12:54:04;2.43;;;2.27;;
2173;SDS011;1093;51.424;11.764;2023-08-06T12:56:30;4.03;;;2.60;;
2173;SDS011;1093;51.424;11.764;2023-08-06T12:58:57;2.53;;;1.90;;
2173;SDS011;1093;51.424;11.764;2023-08-06T13:01:24;2.50;;;2.30;;
2173;SDS011;1093;51.424;11.764;2023-08-06T13:03:51;2.60;;;1.93;;
2173;SDS011;1093;51.424;11.764;2023-08-06T13:06:19;2.70;;;1.80;;
2173;SDS011;1093;51.424;11.764;2023-08-06T13:08:46;2.00;;;1.80;;
2173;SDS011;1093;51.424;11.764;2023-08-06T13:11:13;3.13;;;2.10;;
2173;SDS011;1093;51.424;11.764;2023-08-06T13:13:39;3.30;;;2.07;;
2173;SDS011;1093;51.424;11.764;2023-08-06T13:16:06;3.73;;;2.13;;
2173;SDS011;1093;51.424;11.764;2023-08-06T13:18:33;2.10;;;1.90;;
2173;SDS011;1093;51.424;11.764;2023-08-06T13:21:00;3.43;;;2.20;;
2173;SDS011;1093;51.424;11.764;2023-08-06T13:23:28;1.70;;;1.60;;
2173;SDS011;1093;51.424;11.764;2023-08-06T13:25:55;3.00;;;2.20;;
2173;SDS011;1093;51.424;11.764;2023-08-06T13:28:22;2.07;;;1.87;;
2173;SDS011;1093;51.424;11.764;2023-08-06T13:30:49;3.13;;;1.77;;
2173;SDS011;1093;51.424;11.764;2023-08-06T13:33:15;3.60;;;2.00;;
2173;SDS011;1093;51.424;11.764;2023-08-06T13:35:42;2.33;;;2.13;;
2173;SDS011;1093;51.424;11.764;2023-08-06T13:38:09;2.70;;;1.73;;
2173;SDS011;1093;51.424;11.764;2023-08-06T13:40:38;2.10;;;1.90;;
2173;SDS011;1093;51.424;11.764;2023-08-06T13:43:05;2.43;;;1.87;;
2173;SDS011;1093;51.424;11.764;2023-08-06T13:45:32;1.53;;;1.43;;
2173;SDS011;1093;51.424;11.764;2023-08-06T13:48:00;2.50;;;1.77;;
2173;SDS011;1093;51.424;11.764;2023-08-06T13:50:26;2.33;;;2.13;;
2173;SDS011;1093;51.424;11.764;2023-08-06T13:52:54;2.80;;;2.03;;
2173;SDS011;1093;51.424;11.764;2023-08-06T13:55:21;2.47;;;1.93;;
2173;SDS011;1093;51.424;11.764;2023-08-06T13:57:49;2.27;;;1.50;;
2173;SDS011;1093;51.424;11.764;2023-08-06T14:00:17;2.50;;;2.30;;
2173;SDS011;1093;51.424;11.764;2023-08-06T14:02:43;1.70;;;1.60;;
2173;SDS011;1093;51.424;11.764;2023-08-06T14:05:10;2.20;;;2.07;;
2173;SDS011;1093;51.424;11.764;2023-08-06T14:07:37;1.50;;;1.40;;
2173;SDS011;1093;51.424;11.764;2023-08-06T14:10:04;2.10;;;1.90;;
2173;SDS011;1093;51.424;11.764;2023-08-06T14:12:32;2.40;;;2.20;;
2173;SDS011;1093;51.424;11.764;2023-08-06T14:15:00;2.23;;;2.03;;
2173;SDS011;1093;51.424;11.764;2023-08-06T14:17:28;2.70;;;1.80;;
2173;SDS011;1093;51.424;11.764;2023-08-06T14:19:55;1.93;;;1.73;;
2173;SDS011;1093;51.424;11.764;2023-08-06T14:22:22;2.03;;;1.80;;
2173;SDS011;1093;51.424;11.764;2023-08-06T14:24:48;3.23;;;1.73;;
2173;SDS011;1093;51.424;11.764;2023-08-06T14:27:17;4.50;;;2.03;;
2173;SDS011;1093;51.424;11.764;2023-08-06T14:29:44;2.00;;;1.73;;
2173;SDS011;1093;51.424;11.764;2023-08-06T14:32:12;2.30;;;2.07;;
2173;SDS011;1093;51.424;11.764;2023-08-06T14:34:42;2.70;;;1.70;;
2173;SDS011;1093;51.424;11.764;2023-08-06T14:37:09;3.80;;;2.00;;
2173;SDS011;1093;51.424;11.764;2023-08-06T14:39:36;2.10;;;1.90;;
2173;SDS011;1093;51.424;11.764;2023-08-06T14:42:04;2.10;;;1.70;;
2173;SDS011;1093;51.424;11.764;2023-08-06T14:44:31;3.07;;;1.90;;
2173;SDS011;1093;51.424;11.764;2023-08-06T14:46:58;2.80;;;1.80;;
2173;SDS011;1093;51.424;11.764;2023-08-06T14:49:26;2.30;;;1.97;;
2173;SDS011;1093;51.424;11.764;2023-08-06T14:51:54;2.53;;;1.60;;
2173;SDS011;1093;51.424;11.764;2023-08-06T14:54:24;3.07;;;1.90;;
2173;SDS011;1093;51.424;11.764;2023-08-06T14:56:51;2.10;;;1.80;;
2173;SDS011;1093;51.424;11.764;2023-08-06T14:59:18;1.73;;;1.63;;
2173;SDS011;1093;51.424;11.764;2023-08-06T15:01:45;1.60;;;1.50;;
2173;SDS011;1093;51.424;11.764;2023-08-06T15:04:11;2.10;;;1.90;;
2173;SDS011;1093;51.424;11.764;2023-08-06T15:06:40;4.10;;;1.83;;
2173;SDS011;1093;51.424;11.764;2023-08-06T15:09:07;2.97;;;1.67;;
2173;SDS011;1093;51.424;11.764;2023-08-06T15:11:34;2.00;;;1.80;;
2173;SDS011;1093;51.424;11.764;2023-08-06T15:14:00;2.03;;;1.87;;
2173;SDS011;1093;51.424;11.764;2023-08-06T15:16:30;1.73;;;1.60;;
2173;SDS011;1093;51.424;11.764;2023-08-06T15:18:59;2.07;;;1.90;;
2173;SDS011;1093;51.424;11.764;2023-08-06T15:21:25;4.20;;;1.97;;
2173;SDS011;1093;51.424;11.764;2023-08-06T15:23:54;2.03;;;1.93;;
2173;SDS011;1093;51.424;11.764;2023-08-06T15:26:20;2.03;;;1.90;;
2173;SDS011;1093;51.424;11.764;2023-08-06T15:28:47;3.07;;;2.10;;
2173;SDS011;1093;51.424;11.764;2023-08-06T15:31:14;2.87;;;2.40;;
2173;SDS011;1093;51.424;11.764;2023-08-06T15:33:45;2.77;;;2.57;;
2173;SDS011;1093;51.424;11.764;2023-08-06T15:36:12;4.03;;;3.50;;
2173;SDS011;1093;51.424;11.764;2023-08-06T15:38:39;3.40;;;3.10;;
2173;SDS011;1093;51.424;11.764;2023-08-06T15:41:07;3.30;;;3.07;;
2173;SDS011;1093;51.424;11.764;2023-08-06T15:43:34;3.37;;;3.07;;
2173;SDS011;1093;51.424;11.764;2023-08-06T15:46:01;4.37;;;2.37;;
2173;SDS011;1093;51.424;11.764;2023-08-06T15:48:28;3.20;;;2.60;;
2173;SDS011;1093;51.424;11.764;2023-08-06T15:50:55;3.37;;;3.17;;
2173;SDS011;1093;51.424;11.764;2023-08-06T15:53:23;5.93;;;3.57;;
2173;SDS011;1093;51.424;11.764;2023-08-06T15:55:50;3.87;;;3.10;;
2173;SDS011;1093;51.424;11.764;2023-08-06T15:58:18;3.93;;;3.00;;
2173;SDS011;1093;51.424;11.764;2023-08-06T16:00:45;3.60;;;3.10;;
2173;SDS011;1093;51.424;11.764;2023-08-06T16:03:11;5.17;;;3.13;;
2173;SDS011;1093;51.424;11.764;2023-08-06T16:05:38;5.30;;;2.50;;
2173;SDS011;1093;51.424;11.764;2023-08-06T16:08:06;3.10;;;2.30;;
2173;SDS011;1093;51.424;11.764;2023-08-06T16:10:32;3.47;;;1.80;;
2173;SDS011;1093;51.424;11.764;2023-08-06T16:12:59;5.73;;;2.40;;
2173;SDS011;1093;51.424;11.764;2023-08-06T16:15:29;4.80;;;2.40;;
2173;SDS011;1093;51.424;11.764;2023-08-06T16:17:56;7.77;;;2.67;;